Time;durP1;ratioP1;P1;durP2;ratioP2;P2;SDS_P1;SDS_P2;PMS_P1;PMS_P2;Temp;Humidity;BMP_temperature;BMP_pressure;BME280_temperature;BME280_humidity;BME280_pressure;Samples;Min_cycle;Max_cycle;Signal;HPM_P1;HPM_P2
2022/02/05 00:00:43;;;;;;;;;;;;;;;;;;2092283;28;19928;-65
2022/02/05 00:01:51;;;;;;;;;;;;;;;;;;2092822;28;20641;-64
2022/02/05 00:03:04;;;;;;;;;;;;;;;;;;2110505;28;20836;-64
2022/02/05 00:04:10;;;;;;;;;;;;;;;;;;2110417;28;20585;-66
2022/02/05 00:05:16;;;;;;;;;;;;;;;;;;2110409;28;19925;-63
2022/02/05 00:06:21;;;;;;;;;;;;;;;;;;2110591;28;19924;-63
2022/02/05 00:07:26;;;;;;;;;;;;;;;;;;2109877;28;20651;-63
2022/02/05 00:08:41;;;;;;;;;;;;;;;;;;2110049;28;19963;-64
2022/02/05 00:39:58;;;;;;;;;;;;;;;;;;2110073;28;19963;-62
2022/02/05 00:41:12;;;;;;;;;;;;;;;;;;2110353;28;19928;-63
2022/02/05 00:42:37;;;;;;;;;;;;;;;;;;2110277;28;20059;-63
2022/02/05 00:43:42;;;;;;;;;;;;;;;;;;2110189;28;19928;-62
2022/02/05 00:44:44;;;;;;;;;;;;;;;;;;2110075;28;19964;-62
2022/02/05 00:45:49;;;;;;;;;;;;;;;;;;2110138;28;20002;-63
2022/02/05 00:46:51;;;;;;;;;;;;;;;;;;2110198;28;20099;-63
2022/02/05 00:47:55;;;;;;;;;;;;;;;;;;2110174;28;19928;-63
2022/02/05 00:48:57;;;;;;;;;;;;;;;;;;2110113;28;20789;-62
2022/02/05 00:50:00;;;;;;;;;;;;;;;;;;2110006;28;20817;-63
2022/02/05 00:52:30;;;;;;;;;;;;;;;;;;2093408;28;19987;-64
2022/02/05 00:53:35;;;;;;;;;;;;;;;;;;2110190;28;20774;-64
2022/02/05 00:54:39;;;;;;;;;;;;;;;;;;2110190;28;19925;-65
2022/02/05 00:55:44;;;;;;;;;;;;;;;;;;2110199;28;19951;-63
2022/02/05 00:57:47;;;;;;;;;;;;;;;;;;2110177;28;20647;-64
2022/02/05 00:58:49;;;;;;;;;;;;;;;;;;2110210;28;20662;-63
2022/02/05 00:59:50;;;;;;;;;;;;;;;;;;2110157;28;19964;-63
2022/02/05 01:00:52;;;;;;;;;;;;;;;;;;2109547;28;19934;-63
2022/02/05 01:01:53;;;;;;;;;;;;;;;;;;2101411;28;20122;-63
2022/02/05 01:02:55;;;;;;;;;;;;;;;;;;2109447;28;20834;-64
2022/02/05 01:03:57;;;;;;;;;;;;;;;;;;2109658;28;19928;-63
2022/02/05 01:04:59;;;;;;;;;;;;;;;;;;2101300;28;19956;-63
2022/02/05 01:06:01;;;;;;;;;;;;;;;;;;2109503;28;19925;-63
2022/02/05 01:07:03;;;;;;;;;;;;;;;;;;2109350;28;20659;-62
2022/02/05 01:08:04;;;;;;;;;;;;;;;;;;2109307;28;19928;-63
2022/02/05 01:09:07;;;;;;;;;;;;;;;;;;2110174;28;19931;-63
2022/02/05 01:10:10;;;;;;;;;;;;;;;;;;2109310;28;19934;-62
2022/02/05 01:11:11;;;;;;;;;;;;;;;;;;2109741;28;20012;-63
2022/02/05 01:12:14;;;;;;;;;;;;;;;;;;2109886;28;19935;-64
2022/02/05 01:13:17;;;;;;;;;;;;;;;;;;2110326;28;19958;-63
2022/02/05 01:14:25;;;;;;;;;;;;;;;;;;2109170;28;20651;-63
2022/02/05 01:15:33;;;;;;;;;;;;;;;;;;2109496;28;20103;-63
2022/02/05 01:16:54;;;;;;;;;;;;;;;;;;2109954;28;19929;-63
2022/02/05 01:18:01;;;;;;;;;;;;;;;;;;2110080;28;20612;-63
2022/02/05 01:19:03;;;;;;;;;;;;;;;;;;2110166;28;19955;-62
2022/02/05 01:20:32;;;;;;;;;;;;;;;;;;2109797;28;19928;-62
2022/02/05 01:21:41;;;;;;;;;;;;;;;;;;2109882;28;20002;-64
2022/02/05 01:22:44;;;;;;;;;;;;;;;;;;2109939;28;20022;-63
2022/02/05 01:23:51;;;;;;;;;;;;;;;;;;2109967;28;20137;-63
2022/02/05 01:24:54;;;;;;;;;;;;;;;;;;2109861;28;19936;-62
2022/02/05 01:26:07;;;;;;;;;;;;;;;;;;2109967;28;19929;-63
2022/02/05 01:27:28;;;;;;;;;;;;;;;;;;2110022;28;19932;-62
2022/02/05 01:28:33;;;;;;;;;;;;;;;;;;2109463;28;20069;-62
2022/02/05 01:30:43;;;;;;;;;;;;;;;;;;2109918;28;19932;-65
2022/02/05 01:31:50;;;;;;;;;;;;;;;;;;2109995;28;19928;-63
2022/02/05 01:35:07;;;;;;;;;;;;;;;;;;2109953;28;20794;-64
2022/02/05 01:35:47;;;;;;;;;;;;;;;;;;2100039;28;19983;-64
2022/02/05 01:50:22;;;;;;;;;;;;;;;;;;2109629;28;19929;-63
2022/02/05 01:51:42;;;;;;;;;;;;;;;;;;2109715;28;20767;-63
2022/02/05 01:54:32;;;;;;;;;;;;;;;;;;2109334;28;19946;-64
2022/02/05 01:56:42;;;;;;;;;;;;;;;;;;2109732;28;19929;-62
2022/02/05 01:57:54;;;;;;;;;;;;;;;;;;2109748;28;20746;-62
2022/02/05 02:05:13;;;;;;;;;;;;;;;;;;2109838;28;19924;-65
2022/02/05 02:09:31;;;;;;;;;;;;;;;;;;2109739;28;19924;-63
2022/02/05 02:11:38;;;;;;;;;;;;;;;;;;2109540;28;20041;-62
2022/02/05 02:12:47;;;;;;;;;;;;;;;;;;2109578;28;20006;-65
2022/02/05 02:15:08;;;;;;;;;;;;;;;;;;2109863;28;19935;-62
2022/02/05 02:21:20;;;;;;;;;;;;;;;;;;2109680;28;19925;-63
2022/02/05 02:27:21;;;;;;;;;;;;;;;;;;2109698;28;19924;-64
2022/02/05 02:28:35;;;;;;;;;;;;;;;;;;2109278;28;20749;-63
2022/02/05 02:29:56;;;;;;;;;;;;;;;;;;2109602;28;20694;-63
2022/02/05 02:31:07;;;;;;;;;;;;;;;;;;2109462;28;19929;-64
2022/02/05 02:32:09;;;;;;;;;;;;;;;;;;2109625;28;20003;-64
2022/02/05 02:33:20;;;;;;;;;;;;;;;;;;2109021;28;19928;-63
2022/02/05 02:34:27;;;;;;;;;;;;;;;;;;2108800;28;19971;-64
2022/02/05 02:35:30;;;;;;;;;;;;;;;;;;2109615;28;20681;-63
2022/02/05 02:36:42;;;;;;;;;;;;;;;;;;2109614;28;20053;-64
2022/02/05 02:38:50;;;;;;;;;;;;;;;;;;2109585;28;19933;-64
2022/02/05 02:40:24;;;;;;;;;;;;;;;;;;2109908;28;19931;-63
2022/02/05 02:41:27;;;;;;;;;;;;;;;;;;2110227;28;19928;-64
2022/02/05 02:42:29;;;;;;;;;;;;;;;;;;2110258;28;19928;-65
2022/02/05 02:43:32;;;;;;;;;;;;;;;;;;2109778;28;19925;-63
2022/02/05 02:44:34;;;;;;;;;;;;;;;;;;2109459;28;20153;-66
2022/02/05 02:45:35;;;;;;;;;;;;;;;;;;2108798;28;19931;-64
2022/02/05 02:46:37;;;;;;;;;;;;;;;;;;2109041;28;19976;-64
2022/02/05 02:47:44;;;;;;;;;;;;;;;;;;2109498;28;19928;-64
2022/02/05 02:48:47;;;;;;;;;;;;;;;;;;2109519;28;19935;-64
2022/02/05 02:50:07;;;;;;;;;;;;;;;;;;2108652;28;20798;-64
2022/02/05 02:57:33;;;;;;;;;;;;;;;;;;2109123;28;19924;-63
2022/02/05 02:58:39;;;;;;;;;;;;;;;;;;2109586;28;19935;-64
2022/02/05 02:59:53;;;;;;;;;;;;;;;;;;2109546;28;20620;-63
2022/02/05 03:00:57;;;;;;;;;;;;;;;;;;2108705;28;19928;-63
2022/02/05 03:02:08;;;;;;;;;;;;;;;;;;2108916;28;20636;-63
2022/02/05 03:03:10;;;;;;;;;;;;;;;;;;2109298;28;19975;-63
2022/02/05 03:04:12;;;;;;;;;;;;;;;;;;2108734;28;20767;-63
2022/02/05 03:05:13;;;;;;;;;;;;;;;;;;2108707;28;19925;-64
2022/02/05 03:06:15;;;;;;;;;;;;;;;;;;2108824;28;20022;-63
2022/02/05 03:07:18;;;;;;;;;;;;;;;;;;2108860;28;19932;-63
2022/02/05 03:08:21;;;;;;;;;;;;;;;;;;2109454;28;19928;-64
2022/02/05 03:09:23;;;;;;;;;;;;;;;;;;2109360;28;19980;-64
2022/02/05 03:10:24;;;;;;;;;;;;;;;;;;2109263;28;19928;-64
2022/02/05 03:11:26;;;;;;;;;;;;;;;;;;2108816;28;20057;-64
2022/02/05 03:12:28;;;;;;;;;;;;;;;;;;2108830;28;20829;-65
2022/02/05 03:13:29;;;;;;;;;;;;;;;;;;2109452;28;19970;-64
2022/02/05 03:14:31;;;;;;;;;;;;;;;;;;2109157;28;20801;-64
2022/02/05 03:15:36;;;;;;;;;;;;;;;;;;2109280;28;20628;-64
2022/02/05 03:16:37;;;;;;;;;;;;;;;;;;2109538;28;19931;-64
2022/02/05 03:17:46;;;;;;;;;;;;;;;;;;2109341;28;19928;-62
2022/02/05 03:19:10;;;;;;;;;;;;;;;;;;2108774;28;19964;-63
2022/02/05 03:20:11;;;;;;;;;;;;;;;;;;2108444;28;19928;-62
2022/02/05 03:21:13;;;;;;;;;;;;;;;;;;2108683;28;20736;-63
2022/02/05 03:22:15;;;;;;;;;;;;;;;;;;2108935;28;19929;-62
2022/02/05 03:23:16;;;;;;;;;;;;;;;;;;2108874;28;20069;-64
2022/02/05 03:24:18;;;;;;;;;;;;;;;;;;2108626;28;20044;-63
2022/02/05 03:25:20;;;;;;;;;;;;;;;;;;2108661;28;20055;-63
2022/02/05 03:26:23;;;;;;;;;;;;;;;;;;2100530;28;20723;-63
2022/02/05 03:27:29;;;;;;;;;;;;;;;;;;2101435;28;19928;-65
2022/02/05 03:28:39;;;;;;;;;;;;;;;;;;2108885;28;19924;-63
2022/02/05 03:29:49;;;;;;;;;;;;;;;;;;2109319;28;19925;-63
2022/02/05 03:30:51;;;;;;;;;;;;;;;;;;2109114;28;19929;-64
2022/02/05 03:31:53;;;;;;;;;;;;;;;;;;2109146;28;19931;-64
2022/02/05 03:32:56;;;;;;;;;;;;;;;;;;2109195;28;19924;-63
2022/02/05 03:34:17;;;;;;;;;;;;;;;;;;2109375;28;20769;-63
2022/02/05 03:35:18;;;;;;;;;;;;;;;;;;2108613;28;19947;-64
2022/02/05 03:36:22;;;;;;;;;;;;;;;;;;2108817;28;19925;-64
2022/02/05 03:37:40;;;;;;;;;;;;;;;;;;2109041;28;19935;-64
2022/02/05 03:38:47;;;;;;;;;;;;;;;;;;2109149;28;19928;-63
2022/02/05 03:39:49;;;;;;;;;;;;;;;;;;2109147;28;20061;-64
2022/02/05 03:40:51;;;;;;;;;;;;;;;;;;2109301;28;20721;-64
2022/02/05 03:41:53;;;;;;;;;;;;;;;;;;2109261;28;20001;-64
2022/02/05 03:43:14;;;;;;;;;;;;;;;;;;2108978;28;20689;-63
2022/02/05 03:44:36;;;;;;;;;;;;;;;;;;2109085;28;20006;-64
2022/02/05 03:45:37;;;;;;;;;;;;;;;;;;2108983;28;20094;-64
2022/02/05 03:46:39;;;;;;;;;;;;;;;;;;2109151;28;20850;-65
2022/02/05 03:47:43;;;;;;;;;;;;;;;;;;2109205;28;19958;-63
2022/02/05 03:48:44;;;;;;;;;;;;;;;;;;2109028;28;19924;-63
2022/02/05 03:50:04;;;;;;;;;;;;;;;;;;2108298;28;20019;-63
2022/02/05 03:51:26;;;;;;;;;;;;;;;;;;2108954;28;20723;-64
2022/02/05 03:52:42;;;;;;;;;;;;;;;;;;2108447;28;20744;-64
2022/02/05 03:53:44;;;;;;;;;;;;;;;;;;2102388;28;19932;-64
2022/02/05 03:54:46;;;;;;;;;;;;;;;;;;2100210;28;19932;-65
2022/02/05 03:55:55;;;;;;;;;;;;;;;;;;2108743;28;19928;-64
2022/02/05 03:57:00;;;;;;;;;;;;;;;;;;2108557;28;19924;-63
2022/02/05 03:58:14;;;;;;;;;;;;;;;;;;2108892;28;19936;-65
2022/02/05 03:59:31;;;;;;;;;;;;;;;;;;2109141;28;19935;-64
2022/02/05 04:00:40;;;;;;;;;;;;;;;;;;2108912;28;20600;-64
2022/02/05 04:01:49;;;;;;;;;;;;;;;;;;2109131;28;20638;-63
2022/02/05 04:03:10;;;;;;;;;;;;;;;;;;2109521;28;19930;-63
2022/02/05 04:04:32;;;;;;;;;;;;;;;;;;2109195;28;19924;-64
2022/02/05 04:05:53;;;;;;;;;;;;;;;;;;2110348;28;20735;-64
2022/02/05 04:07:15;;;;;;;;;;;;;;;;;;2110732;28;19924;-64
2022/02/05 04:08:36;;;;;;;;;;;;;;;;;;2110397;28;20623;-63
2022/02/05 04:10:01;;;;;;;;;;;;;;;;;;2110333;28;20698;-63
2022/02/05 04:11:56;;;;;;;;;;;;;;;;;;2110399;28;20643;-64
2022/02/05 04:16:38;;;;;;;;;;;;;;;;;;2110447;28;19931;-63
2022/02/05 04:18:00;;;;;;;;;;;;;;;;;;2109847;28;19928;-64
2022/02/05 04:19:21;;;;;;;;;;;;;;;;;;2110494;28;19936;-64
2022/02/05 04:20:42;;;;;;;;;;;;;;;;;;2110308;28;20745;-64
2022/02/05 04:22:03;;;;;;;;;;;;;;;;;;2110500;28;20002;-63
2022/02/05 04:23:25;;;;;;;;;;;;;;;;;;2110307;28;20149;-63
2022/02/05 04:24:46;;;;;;;;;;;;;;;;;;2110682;28;19928;-63
2022/02/05 04:26:07;;;;;;;;;;;;;;;;;;2109843;28;19924;-63
2022/02/05 04:27:29;;;;;;;;;;;;;;;;;;2107293;28;19936;-63
2022/02/05 04:28:50;;;;;;;;;;;;;;;;;;2110306;28;19928;-63
2022/02/05 04:30:11;;;;;;;;;;;;;;;;;;2110532;28;19928;-63
2022/02/05 04:31:32;;;;;;;;;;;;;;;;;;2109897;28;19951;-64
2022/02/05 04:32:54;;;;;;;;;;;;;;;;;;2107070;28;19928;-64
2022/02/05 04:34:15;;;;;;;;;;;;;;;;;;2107299;28;20006;-67
2022/02/05 04:35:37;;;;;;;;;;;;;;;;;;2110052;28;20585;-65
2022/02/05 04:37:00;;;;;;;;;;;;;;;;;;2109667;28;19924;-64
2022/02/05 04:38:22;;;;;;;;;;;;;;;;;;2107425;28;19984;-63
2022/02/05 04:39:50;;;;;;;;;;;;;;;;;;2110223;28;19928;-64
2022/02/05 04:41:27;;;;;;;;;;;;;;;;;;2110184;28;20709;-63
2022/02/05 04:53:26;;;;;;;;;;;;;;;;;;2110135;28;20812;-63
2022/02/05 04:55:43;;;;;;;;;;;;;;;;;;2110391;28;19925;-63
2022/02/05 04:56:43;;;;;;;;;;;;;;;;;;2110140;28;19932;-62
2022/02/05 05:09:24;;;;;;;;;;;;;;;;;;2109999;28;19928;-63
2022/02/05 05:20:01;;;;;;;;;;;;;;;;;;2109974;28;19929;-63
2022/02/05 05:21:22;;;;;;;;;;;;;;;;;;2109851;28;19924;-64
2022/02/05 05:22:44;;;;;;;;;;;;;;;;;;2110238;28;19955;-62
2022/02/05 05:24:05;;;;;;;;;;;;;;;;;;2110209;28;19932;-64
2022/02/05 05:25:26;;;;;;;;;;;;;;;;;;2110278;28;19936;-62
2022/02/05 05:26:48;;;;;;;;;;;;;;;;;;2109142;28;19994;-63
2022/02/05 05:28:09;;;;;;;;;;;;;;;;;;2109920;28;20034;-64
2022/02/05 05:29:32;;;;;;;;;;;;;;;;;;2109962;28;20639;-64
2022/02/05 05:30:54;;;;;;;;;;;;;;;;;;2110259;28;19997;-63
2022/02/05 05:32:15;;;;;;;;;;;;;;;;;;2109220;28;19932;-63
2022/02/05 05:33:36;;;;;;;;;;;;;;;;;;2109832;28;19930;-62
2022/02/05 05:34:57;;;;;;;;;;;;;;;;;;2109636;28;19928;-63
2022/02/05 05:36:19;;;;;;;;;;;;;;;;;;2110356;28;19925;-64
2022/02/05 05:37:40;;;;;;;;;;;;;;;;;;2109854;28;19924;-63
2022/02/05 05:39:02;;;;;;;;;;;;;;;;;;2110186;28;19929;-64
2022/02/05 05:40:23;;;;;;;;;;;;;;;;;;2109956;28;20808;-63
2022/02/05 05:41:45;;;;;;;;;;;;;;;;;;2109525;28;19935;-63
2022/02/05 05:43:17;;;;;;;;;;;;;;;;;;2109672;28;19998;-64
2022/02/05 05:46:30;;;;;;;;;;;;;;;;;;2110261;28;19988;-63
2022/02/05 05:47:55;;;;;;;;;;;;;;;;;;2109875;28;20009;-63
2022/02/05 05:49:22;;;;;;;;;;;;;;;;;;2109465;28;20717;-63
2022/02/05 05:52:04;;;;;;;;;;;;;;;;;;2110164;28;19924;-63
2022/02/05 05:53:26;;;;;;;;;;;;;;;;;;2109968;28;19928;-63
2022/02/05 05:54:47;;;;;;;;;;;;;;;;;;2109704;28;20059;-63
2022/02/05 05:56:08;;;;;;;;;;;;;;;;;;2110536;28;19924;-63
2022/02/05 05:57:30;;;;;;;;;;;;;;;;;;2110137;28;20724;-63
2022/02/05 05:58:51;;;;;;;;;;;;;;;;;;2110460;28;19951;-63
2022/02/05 06:00:12;;;;;;;;;;;;;;;;;;2109726;28;19928;-63
2022/02/05 06:01:33;;;;;;;;;;;;;;;;;;2109550;28;20054;-62
2022/02/05 06:02:55;;;;;;;;;;;;;;;;;;2109830;28;19932;-63
2022/02/05 06:04:16;;;;;;;;;;;;;;;;;;2109076;28;19929;-62
2022/02/05 06:05:37;;;;;;;;;;;;;;;;;;2109769;28;19955;-63
2022/02/05 06:06:59;;;;;;;;;;;;;;;;;;2109174;28;20002;-62
2022/02/05 06:08:20;;;;;;;;;;;;;;;;;;2109781;28;19935;-63
2022/02/05 06:09:43;;;;;;;;;;;;;;;;;;2109611;28;19930;-63
2022/02/05 06:11:05;;;;;;;;;;;;;;;;;;2108951;28;19925;-63
2022/02/05 06:12:26;;;;;;;;;;;;;;;;;;2109117;28;19924;-62
2022/02/05 06:13:48;;;;;;;;;;;;;;;;;;2109205;28;20058;-63
2022/02/05 06:15:09;;;;;;;;;;;;;;;;;;2109643;28;19998;-63
2022/02/05 06:16:33;;;;;;;;;;;;;;;;;;2109679;28;20005;-63
2022/02/05 06:17:54;;;;;;;;;;;;;;;;;;2109542;28;19925;-64
2022/02/05 06:19:17;;;;;;;;;;;;;;;;;;2110149;28;20042;-63
2022/02/05 06:20:39;;;;;;;;;;;;;;;;;;2109613;28;19935;-65
2022/02/05 06:22:00;;;;;;;;;;;;;;;;;;2109624;28;20702;-62
2022/02/05 06:23:21;;;;;;;;;;;;;;;;;;2108879;28;20900;-63
2022/02/05 06:24:42;;;;;;;;;;;;;;;;;;2109220;28;19933;-62
2022/02/05 06:26:04;;;;;;;;;;;;;;;;;;2109624;28;19929;-63
2022/02/05 06:27:25;;;;;;;;;;;;;;;;;;2109061;28;19924;-62
2022/02/05 06:28:46;;;;;;;;;;;;;;;;;;2109388;28;19966;-65
2022/02/05 06:30:08;;;;;;;;;;;;;;;;;;2109321;28;20631;-62
2022/02/05 06:31:29;;;;;;;;;;;;;;;;;;2109570;28;19935;-62
2022/02/05 06:32:50;;;;;;;;;;;;;;;;;;2109746;28;19928;-64
2022/02/05 06:34:12;;;;;;;;;;;;;;;;;;2109688;28;19929;-64
2022/02/05 06:35:33;;;;;;;;;;;;;;;;;;2108690;28;20122;-64
2022/02/05 06:36:54;;;;;;;;;;;;;;;;;;2109679;28;19924;-64
2022/02/05 06:38:16;;;;;;;;;;;;;;;;;;2109755;28;20027;-64
2022/02/05 06:39:37;;;;;;;;;;;;;;;;;;2109684;28;19932;-62
2022/02/05 06:40:58;;;;;;;;;;;;;;;;;;2109325;28;19924;-63
2022/02/05 06:42:20;;;;;;;;;;;;;;;;;;2109448;28;19928;-62
2022/02/05 06:43:41;;;;;;;;;;;;;;;;;;2109042;28;20789;-62
2022/02/05 06:45:02;;;;;;;;;;;;;;;;;;2108910;28;20706;-63
2022/02/05 06:46:24;;;;;;;;;;;;;;;;;;2109640;28;19932;-64
2022/02/05 06:47:45;;;;;;;;;;;;;;;;;;2108885;28;19932;-63
2022/02/05 06:49:07;;;;;;;;;;;;;;;;;;2109554;28;19924;-62
2022/02/05 06:50:28;;;;;;;;;;;;;;;;;;2108870;28;19936;-63
2022/02/05 06:51:49;;;;;;;;;;;;;;;;;;2107006;28;19986;-62
2022/02/05 06:53:05;;;;;;;;;;;;;;;;;;2110133;28;19924;-64
2022/02/05 06:54:26;;;;;;;;;;;;;;;;;;2110334;28;19994;-64
2022/02/05 06:55:48;;;;;;;;;;;;;;;;;;2109584;28;20675;-64
2022/02/05 06:57:09;;;;;;;;;;;;;;;;;;2109670;28;19928;-64
2022/02/05 06:58:30;;;;;;;;;;;;;;;;;;2109322;28;19932;-63
2022/02/05 06:59:52;;;;;;;;;;;;;;;;;;2109278;28;19924;-62
2022/02/05 07:01:13;;;;;;;;;;;;;;;;;;2109763;28;19929;-62
2022/02/05 07:02:34;;;;;;;;;;;;;;;;;;2109350;28;20005;-63
2022/02/05 07:03:50;;;;;;;;;;;;;;;;;;2109401;28;20062;-62
2022/02/05 07:05:12;;;;;;;;;;;;;;;;;;2109249;28;20035;-62
2022/02/05 07:06:33;;;;;;;;;;;;;;;;;;2109349;28;20719;-63
2022/02/05 07:07:54;;;;;;;;;;;;;;;;;;2109550;28;19928;-62
2022/02/05 07:09:16;;;;;;;;;;;;;;;;;;2109517;28;20570;-64
2022/02/05 07:10:37;;;;;;;;;;;;;;;;;;2109272;28;19994;-63
2022/02/05 07:11:56;;;;;;;;;;;;;;;;;;2108646;28;19935;-63
2022/02/05 07:13:19;;;;;;;;;;;;;;;;;;2109066;28;19925;-62
2022/02/05 07:14:56;;;;;;;;;;;;;;;;;;2108832;28;20751;-64
2022/02/05 07:16:20;;;;;;;;;;;;;;;;;;2106804;28;19935;-65
2022/02/05 07:18:05;;;;;;;;;;;;;;;;;;2109323;28;19929;-64
2022/02/05 07:20:40;;;;;;;;;;;;;;;;;;2109306;28;20022;-64
2022/02/05 07:22:02;;;;;;;;;;;;;;;;;;2108963;28;20698;-64
2022/02/05 07:29:16;;;;;;;;;;;;;;;;;;2109557;28;19931;-64
2022/02/05 07:30:37;;;;;;;;;;;;;;;;;;2108931;28;19924;-63
2022/02/05 07:31:46;;;;;;;;;;;;;;;;;;2108956;28;19932;-63
2022/02/05 07:32:51;;;;;;;;;;;;;;;;;;2108174;28;19929;-64
2022/02/05 07:33:54;;;;;;;;;;;;;;;;;;2108833;28;20001;-64
2022/02/05 07:35:01;;;;;;;;;;;;;;;;;;2109247;28;19928;-64
2022/02/05 07:36:23;;;;;;;;;;;;;;;;;;2108666;28;20712;-63
2022/02/05 07:37:44;;;;;;;;;;;;;;;;;;2109235;28;19955;-64
2022/02/05 07:38:46;;;;;;;;;;;;;;;;;;2108876;28;20614;-63
2022/02/05 07:39:48;;;;;;;;;;;;;;;;;;2109067;28;20576;-64
2022/02/05 07:40:51;;;;;;;;;;;;;;;;;;2110141;28;19936;-63
2022/02/05 07:41:54;;;;;;;;;;;;;;;;;;2110139;28;20054;-66
2022/02/05 07:43:15;;;;;;;;;;;;;;;;;;2110845;28;19928;-63
2022/02/05 07:44:37;;;;;;;;;;;;;;;;;;2110844;28;20001;-63
2022/02/05 07:45:58;;;;;;;;;;;;;;;;;;2110657;28;20680;-64
2022/02/05 07:47:21;;;;;;;;;;;;;;;;;;2110253;28;19925;-64
2022/02/05 07:48:42;;;;;;;;;;;;;;;;;;2110451;28;20047;-63
2022/02/05 07:49:44;;;;;;;;;;;;;;;;;;2110535;28;19933;-63
2022/02/05 07:50:46;;;;;;;;;;;;;;;;;;2109602;28;19928;-63
2022/02/05 07:51:48;;;;;;;;;;;;;;;;;;2109924;28;20059;-64
2022/02/05 07:52:49;;;;;;;;;;;;;;;;;;2110459;28;19931;-63
2022/02/05 07:53:51;;;;;;;;;;;;;;;;;;2110697;28;19964;-64
2022/02/05 07:54:53;;;;;;;;;;;;;;;;;;2110585;28;19931;-64
2022/02/05 07:55:56;;;;;;;;;;;;;;;;;;2109670;28;19929;-63
2022/02/05 07:57:06;;;;;;;;;;;;;;;;;;2110160;28;19940;-64
2022/02/05 07:58:17;;;;;;;;;;;;;;;;;;2110464;28;19924;-63
2022/02/05 07:59:31;;;;;;;;;;;;;;;;;;2109834;28;19928;-63
2022/02/05 08:00:34;;;;;;;;;;;;;;;;;;2110246;28;19925;-65
2022/02/05 08:01:36;;;;;;;;;;;;;;;;;;2109988;28;19935;-65
2022/02/05 08:02:38;;;;;;;;;;;;;;;;;;2109935;28;20635;-64
2022/02/05 08:03:40;;;;;;;;;;;;;;;;;;2110612;28;19932;-64
2022/02/05 08:04:42;;;;;;;;;;;;;;;;;;2110634;28;19929;-62
2022/02/05 08:05:43;;;;;;;;;;;;;;;;;;2110429;28;19967;-63
2022/02/05 08:06:46;;;;;;;;;;;;;;;;;;2110492;28;19924;-65
2022/02/05 08:07:49;;;;;;;;;;;;;;;;;;2110332;28;20002;-65
2022/02/05 08:08:55;;;;;;;;;;;;;;;;;;2110524;28;19935;-64
2022/02/05 08:10:19;;;;;;;;;;;;;;;;;;2110589;28;19935;-62
2022/02/05 08:11:46;;;;;;;;;;;;;;;;;;2110110;28;19928;-62
2022/02/05 08:13:02;;;;;;;;;;;;;;;;;;2110086;28;19935;-65
2022/02/05 08:14:14;;;;;;;;;;;;;;;;;;2110452;28;19929;-65
2022/02/05 08:15:25;;;;;;;;;;;;;;;;;;2109932;28;19971;-64
2022/02/05 08:16:45;;;;;;;;;;;;;;;;;;2110050;28;20017;-63
2022/02/05 08:17:47;;;;;;;;;;;;;;;;;;2109595;28;19924;-67
2022/02/05 08:18:48;;;;;;;;;;;;;;;;;;2101276;28;19932;-64
2022/02/05 08:19:49;;;;;;;;;;;;;;;;;;2109800;28;19959;-66
2022/02/05 08:20:51;;;;;;;;;;;;;;;;;;2110305;28;20038;-63
2022/02/05 08:21:54;;;;;;;;;;;;;;;;;;2110372;28;19932;-64
2022/02/05 08:23:06;;;;;;;;;;;;;;;;;;2110540;28;19929;-68
2022/02/05 08:24:15;;;;;;;;;;;;;;;;;;2110312;28;19936;-65
2022/02/05 08:25:22;;;;;;;;;;;;;;;;;;2110063;28;19933;-68
2022/02/05 08:26:29;;;;;;;;;;;;;;;;;;2109696;28;20724;-67
2022/02/05 08:27:31;;;;;;;;;;;;;;;;;;2109870;28;20730;-65
2022/02/05 08:28:35;;;;;;;;;;;;;;;;;;2110363;28;19928;-65
2022/02/05 08:29:40;;;;;;;;;;;;;;;;;;2110318;28;19929;-66
2022/02/05 08:30:42;;;;;;;;;;;;;;;;;;2110205;28;19928;-65
2022/02/05 08:31:44;;;;;;;;;;;;;;;;;;2109827;28;19933;-65
2022/02/05 08:32:46;;;;;;;;;;;;;;;;;;2109633;28;19935;-68
2022/02/05 08:33:48;;;;;;;;;;;;;;;;;;2109661;28;20001;-67
2022/02/05 08:34:49;;;;;;;;;;;;;;;;;;2109697;28;20755;-68
2022/02/05 08:35:51;;;;;;;;;;;;;;;;;;2109541;28;20712;-68
2022/02/05 08:36:58;;;;;;;;;;;;;;;;;;2109657;28;20632;-69
2022/02/05 08:38:03;;;;;;;;;;;;;;;;;;2110607;28;20650;-65
2022/02/05 08:39:09;;;;;;;;;;;;;;;;;;2109724;28;19936;-69
2022/02/05 08:40:16;;;;;;;;;;;;;;;;;;2109794;28;19932;-68
2022/02/05 08:41:22;;;;;;;;;;;;;;;;;;2110182;28;20754;-65
2022/02/05 08:42:27;;;;;;;;;;;;;;;;;;2109381;28;19998;-64
2022/02/05 08:43:30;;;;;;;;;;;;;;;;;;2102018;28;20002;-68
2022/02/05 08:44:33;;;;;;;;;;;;;;;;;;2101897;28;20118;-68
2022/02/05 08:45:35;;;;;;;;;;;;;;;;;;2109338;28;19932;-67
2022/02/05 08:46:36;;;;;;;;;;;;;;;;;;2110208;28;19990;-72
2022/02/05 08:47:40;;;;;;;;;;;;;;;;;;2109941;28;20042;-68
2022/02/05 08:48:41;;;;;;;;;;;;;;;;;;2110090;28;19928;-68
2022/02/05 08:49:42;;;;;;;;;;;;;;;;;;2109460;28;20049;-67
2022/02/05 08:50:44;;;;;;;;;;;;;;;;;;2101304;28;20078;-67
2022/02/05 08:51:46;;;;;;;;;;;;;;;;;;2101236;28;19924;-69
2022/02/05 08:52:52;;;;;;;;;;;;;;;;;;2101119;28;19932;-63
2022/02/05 08:53:55;;;;;;;;;;;;;;;;;;2102055;28;19929;-68
2022/02/05 08:54:58;;;;;;;;;;;;;;;;;;2101523;28;19929;-70
2022/02/05 08:56:01;;;;;;;;;;;;;;;;;;2101644;28;20613;-67
2022/02/05 08:57:07;;;;;;;;;;;;;;;;;;2102180;28;19958;-71
2022/02/05 08:58:12;;;;;;;;;;;;;;;;;;2102386;28;19936;-69
2022/02/05 08:59:16;;;;;;;;;;;;;;;;;;2109458;28;19936;-68
2022/02/05 09:00:24;;;;;;;;;;;;;;;;;;2109636;28;20708;-64
2022/02/05 09:01:43;;;;;;;;;;;;;;;;;;2102210;28;19994;-66
2022/02/05 09:02:55;;;;;;;;;;;;;;;;;;2103919;28;20722;-68
2022/02/05 09:04:09;;;;;;;;;;;;;;;;;;2109955;28;19924;-65
2022/02/05 09:05:29;;;;;;;;;;;;;;;;;;2108988;28;19931;-66
2022/02/05 09:06:37;;;;;;;;;;;;;;;;;;2109657;28;19987;-68
2022/02/05 09:07:41;;;;;;;;;;;;;;;;;;2110098;28;19929;-71
2022/02/05 09:08:51;;;;;;;;;;;;;;;;;;2110244;28;19928;-68
2022/02/05 09:12:29;;;;;;;;;;;;;;;;;;2110334;28;20054;-64
2022/02/05 09:14:46;;;;;;;;;;;;;;;;;;2110100;28;19925;-68
2022/02/05 09:15:48;;;;;;;;;;;;;;;;;;2110111;28;20730;-67
2022/02/05 09:16:50;;;;;;;;;;;;;;;;;;2109375;28;20647;-64
2022/02/05 09:17:51;;;;;;;;;;;;;;;;;;2109414;28;20845;-65
2022/02/05 09:18:53;;;;;;;;;;;;;;;;;;2110001;28;20050;-63
2022/02/05 09:19:55;;;;;;;;;;;;;;;;;;2109218;28;19929;-68
2022/02/05 09:20:57;;;;;;;;;;;;;;;;;;2109331;28;20001;-68
2022/02/05 09:21:58;;;;;;;;;;;;;;;;;;2110155;28;20801;-67
2022/02/05 09:23:01;;;;;;;;;;;;;;;;;;2109998;28;19928;-63
2022/02/05 09:24:06;;;;;;;;;;;;;;;;;;2110022;28;20755;-66
2022/02/05 09:25:08;;;;;;;;;;;;;;;;;;2109361;28;20716;-65
2022/02/05 09:26:12;;;;;;;;;;;;;;;;;;2109325;28;19928;-65
2022/02/05 09:27:14;;;;;;;;;;;;;;;;;;2109446;28;19975;-67
2022/02/05 09:28:16;;;;;;;;;;;;;;;;;;2101162;28;20055;-65
2022/02/05 09:29:20;;;;;;;;;;;;;;;;;;2109276;28;19925;-65
2022/02/05 09:30:45;;;;;;;;;;;;;;;;;;2109911;28;19994;-67
2022/02/05 09:31:45;;;;;;;;;;;;;;;;;;2109743;28;19931;-63
2022/02/05 09:32:47;;;;;;;;;;;;;;;;;;2109744;28;20684;-63
2022/02/05 09:33:48;;;;;;;;;;;;;;;;;;2109836;28;20783;-67
2022/02/05 09:34:50;;;;;;;;;;;;;;;;;;2109174;28;19928;-66
2022/02/05 09:35:52;;;;;;;;;;;;;;;;;;2109163;28;19929;-67
2022/02/05 09:36:53;;;;;;;;;;;;;;;;;;2110078;28;19986;-67
2022/02/05 09:37:55;;;;;;;;;;;;;;;;;;2109997;28;20698;-67
2022/02/05 09:38:58;;;;;;;;;;;;;;;;;;2109929;28;19928;-64
2022/02/05 09:40:00;;;;;;;;;;;;;;;;;;2109645;28;20747;-68
2022/02/05 09:41:02;;;;;;;;;;;;;;;;;;2109867;28;19924;-69
2022/02/05 09:42:04;;;;;;;;;;;;;;;;;;2109791;28;19936;-67
2022/02/05 09:43:06;;;;;;;;;;;;;;;;;;2109778;28;19929;-65
2022/02/05 09:44:08;;;;;;;;;;;;;;;;;;2109936;28;19928;-69
2022/02/05 09:45:10;;;;;;;;;;;;;;;;;;2109562;28;19924;-71
2022/02/05 09:46:12;;;;;;;;;;;;;;;;;;2109960;28;19935;-65
2022/02/05 09:47:13;;;;;;;;;;;;;;;;;;2109933;28;19928;-66
2022/02/05 09:48:15;;;;;;;;;;;;;;;;;;2110018;28;20038;-64
2022/02/05 09:49:18;;;;;;;;;;;;;;;;;;2109116;28;20025;-63
2022/02/05 09:50:21;;;;;;;;;;;;;;;;;;2109191;28;20662;-66
2022/02/05 09:51:25;;;;;;;;;;;;;;;;;;2109051;28;19924;-66
2022/02/05 09:52:28;;;;;;;;;;;;;;;;;;2109081;28;20647;-66
2022/02/05 09:53:29;;;;;;;;;;;;;;;;;;2109069;28;20066;-63
2022/02/05 09:54:31;;;;;;;;;;;;;;;;;;2109090;28;20055;-63
2022/02/05 09:55:32;;;;;;;;;;;;;;;;;;2109726;28;20828;-66
2022/02/05 09:56:34;;;;;;;;;;;;;;;;;;2109482;28;20733;-64
2022/02/05 09:57:36;;;;;;;;;;;;;;;;;;2109123;28;20059;-65
2022/02/05 09:58:37;;;;;;;;;;;;;;;;;;2100936;28;20039;-64
2022/02/05 09:59:39;;;;;;;;;;;;;;;;;;2109049;28;19928;-67
2022/02/05 10:00:40;;;;;;;;;;;;;;;;;;2109794;28;19935;-67
2022/02/05 10:01:42;;;;;;;;;;;;;;;;;;2109726;28;19998;-63
2022/02/05 10:02:43;;;;;;;;;;;;;;;;;;2109269;28;19924;-63
2022/02/05 10:03:45;;;;;;;;;;;;;;;;;;2108876;28;19935;-66
2022/02/05 10:04:46;;;;;;;;;;;;;;;;;;2109047;28;19936;-65
2022/02/05 10:05:48;;;;;;;;;;;;;;;;;;2109436;28;19936;-66
2022/02/05 10:06:50;;;;;;;;;;;;;;;;;;2109574;28;19928;-68
2022/02/05 10:07:53;;;;;;;;;;;;;;;;;;2109728;28;19925;-65
2022/02/05 10:08:55;;;;;;;;;;;;;;;;;;2109575;28;20042;-63
2022/02/05 10:09:57;;;;;;;;;;;;;;;;;;2109796;28;19928;-64
2022/02/05 10:11:00;;;;;;;;;;;;;;;;;;2109686;28;19929;-66
2022/02/05 10:12:04;;;;;;;;;;;;;;;;;;2109059;28;20753;-66
2022/02/05 10:13:06;;;;;;;;;;;;;;;;;;2108686;28;19928;-68